Time;durP1;ratioP1;P1;durP2;ratioP2;P2;SDS_P1;SDS_P2;PMS_P1;PMS_P2;Temp;Humidity;BMP_temperature;BMP_pressure;BME280_temperature;BME280_humidity;BME280_pressure;Samples;Min_cycle;Max_cycle;Signal;HPM_P1;HPM_P2
2023/09/26 00:01:28;;;;;;;9.10;8.30;;;10.50;87.70;;;;;;4976852;28;20233;-87
2023/09/26 00:03:54;;;;;;;9.60;8.70;;;10.50;87.70;;;;;;4975648;28;20217;-88
2023/09/26 00:06:20;;;;;;;8.73;7.93;;;10.60;87.80;;;;;;4975597;28;20273;-88
2023/09/26 00:08:47;;;;;;;9.77;8.53;;;10.50;87.80;;;;;;4976745;28;20213;-87
2023/09/26 00:11:13;;;;;;;9.87;8.97;;;10.60;88.00;;;;;;4976615;28;20193;-87
2023/09/26 00:13:38;;;;;;;9.63;8.67;;;10.60;88.10;;;;;;4976527;28;20194;-87
2023/09/26 00:16:06;;;;;;;10.27;9.37;;;10.60;88.20;;;;;;4975349;28;20230;-87
2023/09/26 00:18:32;;;;;;;14.30;9.57;;;10.50;88.20;;;;;;4975731;28;20233;-87
2023/09/26 00:20:57;;;;;;;9.93;8.97;;;10.50;88.30;;;;;;4976685;28;20198;-88
2023/09/26 00:23:23;;;;;;;9.90;9.10;;;10.60;88.40;;;;;;4976397;28;20190;-87
2023/09/26 00:25:48;;;;;;;9.27;8.50;;;10.60;88.30;;;;;;4975283;28;20178;-88
2023/09/26 00:28:14;;;;;;;9.13;8.33;;;10.50;88.30;;;;;;4976629;28;20689;-87
2023/09/26 00:30:41;;;;;;;16.00;14.87;;;10.50;88.30;;;;;;4976464;28;20171;-87
2023/09/26 00:33:06;;;;;;;15.93;14.73;;;10.50;88.30;;;;;;4976340;28;20175;-87
2023/09/26 00:35:32;;;;;;;16.73;15.47;;;10.50;88.30;;;;;;4975166;28;20293;-88
2023/09/26 00:37:57;;;;;;;16.80;15.60;;;10.50;88.20;;;;;;4975363;28;20183;-87
2023/09/26 00:40:23;;;;;;;17.57;16.17;;;10.50;88.30;;;;;;4976075;28;20171;-86
2023/09/26 00:42:49;;;;;;;17.73;16.43;;;10.50;88.20;;;;;;4974926;28;20538;-88
2023/09/26 00:45:15;;;;;;;17.30;16.00;;;10.40;88.20;;;;;;4975892;28;20627;-88
2023/09/26 00:47:42;;;;;;;16.40;15.20;;;10.40;88.30;;;;;;4976108;28;20178;-88
2023/09/26 00:50:12;;;;;;;16.40;15.20;;;10.40;88.30;;;;;;4975916;28;20261;-88
2023/09/26 00:52:49;;;;;;;16.27;15.03;;;10.30;88.30;;;;;;4974706;28;20175;-88
2023/09/26 00:55:18;;;;;;;15.80;14.50;;;10.30;88.20;;;;;;4975817;28;20190;-89
2023/09/26 00:57:45;;;;;;;19.77;18.43;;;10.30;88.20;;;;;;4975930;28;20640;-87
2023/09/26 01:00:13;;;;;;;9.53;7.67;;;10.30;88.10;;;;;;4975768;28;20170;-87
2023/09/26 01:02:39;;;;;;;9.23;8.37;;;10.30;88.10;;;;;;4975865;28;20185;-87
2023/09/26 01:05:06;;;;;;;18.53;17.23;;;10.30;88.00;;;;;;4975583;28;20198;-87
2023/09/26 01:07:33;;;;;;;19.93;18.07;;;10.30;88.00;;;;;;4974198;28;20265;-87
2023/09/26 01:09:59;;;;;;;19.20;17.90;;;10.30;88.00;;;;;;4974497;28;20233;-87
2023/09/26 01:12:26;;;;;;;10.17;8.60;;;10.20;87.90;;;;;;4975823;28;20313;-87
2023/09/26 01:14:52;;;;;;;10.70;9.43;;;10.20;87.80;;;;;;4975480;28;20190;-87
2023/09/26 01:17:18;;;;;;;19.10;17.47;;;10.20;87.80;;;;;;4975773;28;20182;-87
2023/09/26 01:19:43;;;;;;;20.93;19.10;;;10.20;87.80;;;;;;4974057;28;20179;-88
2023/09/26 01:22:09;;;;;;;16.00;14.77;;;10.20;87.70;;;;;;4974272;28;20528;-87
2023/09/26 01:24:37;;;;;;;14.60;9.47;;;10.20;87.70;;;;;;4975861;28;20194;-87
2023/09/26 01:27:04;;;;;;;10.87;9.73;;;10.20;87.80;;;;;;4975286;28;20651;-87
2023/09/26 01:29:29;;;;;;;10.57;9.53;;;10.20;87.70;;;;;;4974017;28;20237;-87
2023/09/26 01:31:55;;;;;;;11.63;10.43;;;10.20;87.70;;;;;;4975841;28;20198;-87
2023/09/26 01:34:20;;;;;;;13.43;10.33;;;10.20;87.60;;;;;;4974987;28;20218;-87
2023/09/26 01:36:46;;;;;;;11.03;9.83;;;10.20;87.70;;;;;;4975007;28;20532;-87
2023/09/26 01:39:12;;;;;;;11.17;10.07;;;10.10;87.90;;;;;;4975658;28;20190;-87
2023/09/26 01:41:38;;;;;;;11.57;10.47;;;10.10;88.00;;;;;;4975021;28;20170;-87
2023/09/26 01:44:05;;;;;;;9.20;8.50;;;10.20;88.10;;;;;;4975188;28;20195;-87
2023/09/26 01:46:30;;;;;;;11.00;9.90;;;10.10;88.10;;;;;;4973748;28;20182;-87
2023/09/26 01:48:56;;;;;;;12.00;9.60;;;10.10;88.20;;;;;;4973553;28;20214;-87
2023/09/26 01:51:21;;;;;;;10.60;9.70;;;10.10;88.40;;;;;;4973696;28;20186;-87
2023/09/26 01:53:48;;;;;;;10.67;9.77;;;10.20;88.50;;;;;;4974684;28;20198;-87
2023/09/26 01:56:13;;;;;;;10.83;9.80;;;10.10;88.60;;;;;;4973552;28;20197;-87
2023/09/26 01:58:39;;;;;;;14.10;10.77;;;10.10;88.70;;;;;;4973651;28;20175;-87
2023/09/26 02:01:05;;;;;;;11.83;10.30;;;10.10;88.80;;;;;;4974764;28;20273;-87
2023/09/26 02:03:31;;;;;;;12.17;10.57;;;10.10;88.80;;;;;;4974454;28;20177;-87
2023/09/26 02:05:57;;;;;;;11.03;10.00;;;10.00;89.00;;;;;;4975040;28;20253;-88
2023/09/26 02:08:23;;;;;;;11.93;10.67;;;10.00;89.10;;;;;;4974441;28;20206;-87
2023/09/26 02:10:48;;;;;;;10.13;9.07;;;10.00;89.20;;;;;;4974374;28;20526;-87
2023/09/26 02:13:14;;;;;;;17.43;8.70;;;9.90;89.30;;;;;;4973221;28;20197;-87
2023/09/26 02:15:39;;;;;;;13.47;8.13;;;9.90;89.20;;;;;;4973299;28;20234;-87
2023/09/26 02:18:05;;;;;;;9.37;8.57;;;9.90;89.20;;;;;;4973226;28;20210;-87
2023/09/26 02:20:31;;;;;;;11.90;9.13;;;9.80;89.20;;;;;;4972409;28;20658;-87
2023/09/26 02:22:57;;;;;;;9.93;8.53;;;9.90;89.20;;;;;;4974621;28;20198;-87
2023/09/26 02:25:23;;;;;;;10.80;9.67;;;9.80;89.30;;;;;;4974274;28;20553;-86
2023/09/26 02:27:49;;;;;;;14.03;11.07;;;9.80;89.20;;;;;;4973251;28;20190;-87
2023/09/26 02:30:20;;;;;;;12.60;11.30;;;9.80;89.30;;;;;;4973242;28;20201;-87
2023/09/26 02:32:46;;;;;;;12.27;11.17;;;9.80;89.40;;;;;;4973109;28;20583;-87
2023/09/26 02:35:14;;;;;;;11.10;9.80;;;9.80;89.60;;;;;;4973062;28;20227;-87
2023/09/26 02:37:40;;;;;;;10.50;9.10;;;9.70;89.60;;;;;;4973180;28;20174;-87
2023/09/26 02:40:10;;;;;;;9.20;8.40;;;9.70;89.70;;;;;;4974252;28;20232;-87
2023/09/26 02:42:40;;;;;;;9.47;8.63;;;9.70;89.70;;;;;;4972952;28;20270;-87
2023/09/26 02:45:07;;;;;;;10.60;8.50;;;9.80;89.70;;;;;;4974277;28;20682;-87
2023/09/26 02:47:32;;;;;;;15.03;13.73;;;9.70;89.60;;;;;;4974217;28;20290;-87
2023/09/26 02:49:58;;;;;;;15.73;14.43;;;9.70;89.60;;;;;;4974249;28;20674;-87
2023/09/26 02:52:24;;;;;;;16.73;15.43;;;9.60;89.40;;;;;;4974403;28;20262;-87
2023/09/26 02:54:50;;;;;;;15.93;14.73;;;9.60;89.40;;;;;;4972883;28;20202;-87
2023/09/26 02:57:17;;;;;;;17.90;16.70;;;9.60;89.40;;;;;;4974174;28;20178;-87
2023/09/26 02:59:43;;;;;;;19.10;17.57;;;9.60;89.20;;;;;;4974516;28;20179;-86
2023/09/26 03:02:08;;;;;;;19.27;17.87;;;9.50;89.30;;;;;;4973417;28;20187;-87
2023/09/26 03:04:34;;;;;;;17.30;16.00;;;9.50;89.10;;;;;;4974653;28;20190;-87
2023/09/26 03:06:59;;;;;;;16.93;15.63;;;9.50;89.10;;;;;;4974189;28;20665;-87
2023/09/26 03:09:25;;;;;;;18.57;16.97;;;9.50;89.20;;;;;;4974153;28;20577;-87
2023/09/26 03:11:50;;;;;;;18.40;16.63;;;9.50;89.20;;;;;;4974384;28;20175;-87
2023/09/26 03:14:18;;;;;;;16.57;15.33;;;9.50;89.10;;;;;;4974068;28;20191;-87
2023/09/26 03:16:44;;;;;;;18.43;16.97;;;9.50;89.10;;;;;;4974152;28;20329;-87
2023/09/26 03:19:10;;;;;;;20.50;18.50;;;9.50;89.10;;;;;;4974316;28;20397;-87
2023/09/26 03:21:36;;;;;;;9.87;9.07;;;9.50;89.10;;;;;;4974014;28;20210;-87
2023/09/26 03:24:01;;;;;;;12.27;9.17;;;9.50;89.00;;;;;;4972742;28;20681;-87
2023/09/26 03:26:27;;;;;;;18.77;17.10;;;9.40;88.90;;;;;;4974109;28;20198;-88
2023/09/26 03:28:53;;;;;;;20.80;18.67;;;9.30;88.90;;;;;;4972699;28;20288;-87
2023/09/26 03:31:18;;;;;;;21.00;19.20;;;9.30;88.80;;;;;;4974125;28;20174;-87
2023/09/26 03:33:44;;;;;;;10.30;9.20;;;9.30;88.80;;;;;;4977412;28;20190;-87
2023/09/26 03:36:10;;;;;;;10.10;9.20;;;9.30;88.80;;;;;;4976219;28;20274;-88
2023/09/26 03:38:35;;;;;;;19.57;18.07;;;9.30;88.70;;;;;;4976300;28;20182;-87
2023/09/26 03:41:03;;;;;;;19.97;18.53;;;9.30;88.60;;;;;;4976124;28;20174;-87
2023/09/26 03:43:29;;;;;;;22.73;20.57;;;9.20;88.50;;;;;;4976219;28;20179;-87
2023/09/26 03:46:03;;;;;;;10.57;9.67;;;9.30;88.50;;;;;;4976115;28;20705;-87
2023/09/26 03:48:29;;;;;;;13.80;10.57;;;9.30;88.40;;;;;;4977106;28;20670;-87
2023/09/26 03:50:55;;;;;;;13.73;12.23;;;9.30;88.40;;;;;;4976008;28;20181;-87
2023/09/26 03:53:21;;;;;;;14.10;12.77;;;9.20;88.50;;;;;;4976114;28;20261;-88
2023/09/26 03:55:56;;;;;;;14.03;12.63;;;9.20;88.80;;;;;;4976240;28;20174;-87
2023/09/26 03:58:22;;;;;;;14.73;12.57;;;9.20;89.20;;;;;;4977347;28;20197;-88
2023/09/26 04:00:48;;;;;;;13.83;12.60;;;9.20;89.30;;;;;;4975599;28;20706;-87
2023/09/26 04:03:13;;;;;;;14.83;12.17;;;9.20;89.60;;;;;;4976974;28;20182;-87
2023/09/26 04:05:46;;;;;;;13.57;12.37;;;9.20;89.90;;;;;;4975754;28;20627;-87
2023/09/26 04:08:13;;;;;;;15.13;12.73;;;9.30;90.00;;;;;;4977173;28;20163;-86
2023/09/26 04:10:39;;;;;;;13.90;12.53;;;9.30;90.20;;;;;;4975595;28;20174;-87
2023/09/26 04:13:05;;;;;;;13.60;12.40;;;9.30;90.20;;;;;;4975808;28;20318;-87
2023/09/26 04:15:30;;;;;;;14.03;12.43;;;9.30;90.40;;;;;;4975901;28;20297;-87
2023/09/26 04:17:56;;;;;;;13.10;11.90;;;9.20;90.50;;;;;;4975648;28;20230;-87
2023/09/26 04:20:22;;;;;;;13.37;11.80;;;9.20;90.60;;;;;;4977054;28;20245;-87
2023/09/26 04:22:48;;;;;;;11.13;10.03;;;9.20;90.70;;;;;;4976830;28;20265;-87
2023/09/26 04:25:14;;;;;;;10.80;9.80;;;9.20;90.70;;;;;;4975152;28;20289;-87
2023/09/26 04:27:39;;;;;;;12.07;11.00;;;9.20;90.70;;;;;;4976664;28;20265;-86
2023/09/26 04:30:07;;;;;;;11.63;10.73;;;9.20;90.70;;;;;;4976780;28;20210;-87
2023/09/26 04:32:32;;;;;;;15.37;11.07;;;9.20;90.80;;;;;;4976655;28;20179;-87
2023/09/26 04:34:58;;;;;;;15.70;12.63;;;9.20;90.80;;;;;;4976820;28;20208;-87
2023/09/26 04:37:24;;;;;;;13.50;12.20;;;9.20;90.80;;;;;;4976792;28;20639;-86
2023/09/26 04:39:49;;;;;;;11.90;10.60;;;9.10;90.90;;;;;;4975548;28;20190;-87
2023/09/26 04:42:14;;;;;;;13.17;11.83;;;9.10;90.90;;;;;;4976201;28;20202;-87
2023/09/26 04:44:40;;;;;;;14.57;12.33;;;9.20;91.00;;;;;;4975929;28;20202;-87
2023/09/26 04:47:06;;;;;;;13.60;12.40;;;9.20;91.10;;;;;;4976454;28;20264;-87
2023/09/26 04:49:34;;;;;;;11.93;10.87;;;9.20;91.10;;;;;;4976462;28;20207;-87
2023/09/26 04:52:00;;;;;;;11.37;10.33;;;9.20;91.10;;;;;;4976229;28;20171;-87
2023/09/26 04:54:25;;;;;;;12.13;9.70;;;9.20;91.10;;;;;;4976098;28;20210;-87
2023/09/26 04:56:51;;;;;;;14.00;8.33;;;9.20;91.10;;;;;;4976352;28;20582;-87
2023/09/26 04:59:17;;;;;;;10.87;9.93;;;9.10;91.00;;;;;;4976092;28;20182;-87
2023/09/26 05:01:42;;;;;;;17.50;15.90;;;9.10;91.00;;;;;;4974922;28;20191;-87
2023/09/26 05:04:08;;;;;;;17.30;15.83;;;9.10;90.90;;;;;;4975907;28;20568;-87
2023/09/26 05:06:33;;;;;;;19.13;17.53;;;9.10;91.00;;;;;;4976260;28;20544;-87
2023/09/26 05:08:59;;;;;;;20.03;18.43;;;9.20;91.00;;;;;;4976291;28;20221;-87
2023/09/26 05:11:27;;;;;;;18.67;17.17;;;9.20;91.10;;;;;;4975762;28;20171;-87
2023/09/26 05:13:53;;;;;;;19.00;17.27;;;9.30;91.10;;;;;;4974691;28;20206;-87
2023/09/26 05:16:18;;;;;;;19.67;17.87;;;9.30;91.20;;;;;;4975886;28;20558;-87
2023/09/26 05:18:44;;;;;;;18.87;17.27;;;9.30;91.30;;;;;;4974782;28;20560;-87
2023/09/26 05:21:11;;;;;;;18.83;17.13;;;9.30;91.20;;;;;;4974624;28;20666;-87
2023/09/26 05:23:37;;;;;;;19.50;17.80;;;9.30;91.20;;;;;;4975988;28;20199;-87
2023/09/26 05:26:10;;;;;;;20.37;18.23;;;9.30;91.30;;;;;;4975824;28;20568;-87
2023/09/26 05:28:36;;;;;;;19.93;17.07;;;9.30;91.30;;;;;;4974494;28;20206;-87
2023/09/26 05:31:02;;;;;;;19.97;17.93;;;9.30;91.40;;;;;;4975856;28;20252;-86
2023/09/26 05:33:28;;;;;;;19.47;17.83;;;9.30;91.40;;;;;;4974291;28;20551;-87
2023/09/26 05:35:54;;;;;;;15.47;14.03;;;9.30;91.50;;;;;;4975561;28;20178;-88
2023/09/26 05:38:20;;;;;;;14.23;13.03;;;9.30;91.60;;;;;;4974255;28;20174;-87
2023/09/26 05:40:47;;;;;;;17.83;16.43;;;9.40;91.60;;;;;;4973945;28;20546;-87
2023/09/26 05:43:12;;;;;;;20.83;18.90;;;9.50;91.60;;;;;;4974478;28;20549;-88
2023/09/26 05:45:38;;;;;;;21.80;20.03;;;9.60;91.80;;;;;;4975373;28;20190;-87
2023/09/26 05:48:04;;;;;;;15.50;14.30;;;9.70;91.80;;;;;;4975868;28;20203;-87
2023/09/26 05:50:30;;;;;;;15.93;14.43;;;9.70;91.90;;;;;;4974163;28;20522;-87
2023/09/26 05:52:56;;;;;;;21.53;19.47;;;9.80;92.00;;;;;;4975077;28;20254;-87
2023/09/26 05:55:21;;;;;;;22.03;20.23;;;9.80;92.10;;;;;;4973148;28;20282;-87
2023/09/26 05:57:48;;;;;;;20.03;17.80;;;9.90;92.20;;;;;;4975345;28;20167;-87
2023/09/26 06:00:14;;;;;;;20.53;16.83;;;10.00;92.30;;;;;;4974014;28;20216;-87
2023/09/26 06:02:40;;;;;;;16.87;15.37;;;10.10;92.40;;;;;;4974036;28;20251;-87
2023/09/26 06:05:06;;;;;;;16.80;14.83;;;10.20;92.40;;;;;;4975062;28;20201;-87
2023/09/26 06:07:32;;;;;;;23.30;15.47;;;10.20;92.50;;;;;;4974971;28;20322;-87
2023/09/26 06:09:58;;;;;;;16.70;15.23;;;10.30;92.50;;;;;;4975196;28;20292;-86
2023/09/26 06:12:24;;;;;;;16.90;15.23;;;10.30;92.60;;;;;;4975063;28;20162;-89
2023/09/26 06:14:50;;;;;;;19.23;16.20;;;10.40;92.60;;;;;;4974726;28;20276;-86
2023/09/26 06:17:15;;;;;;;17.83;15.70;;;10.40;92.60;;;;;;4974729;28;20175;-86
2023/09/26 06:19:46;;;;;;;18.33;16.47;;;10.50;92.70;;;;;;4974654;28;20182;-87
2023/09/26 06:22:16;;;;;;;18.13;15.87;;;10.60;92.80;;;;;;4975213;28;20195;-87
2023/09/26 06:24:42;;;;;;;18.50;16.80;;;10.70;92.80;;;;;;4974738;28;20199;-86
2023/09/26 06:27:07;;;;;;;16.83;15.23;;;10.70;92.80;;;;;;4973392;28;20262;-87
2023/09/26 06:29:36;;;;;;;16.03;14.40;;;10.70;92.80;;;;;;4973466;28;20774;-87
2023/09/26 06:32:02;;;;;;;16.87;15.37;;;10.70;92.80;;;;;;4974763;28;20178;-87
2023/09/26 06:34:27;;;;;;;17.10;14.93;;;10.80;92.90;;;;;;4974783;28;20205;-88
2023/09/26 06:36:53;;;;;;;17.93;16.13;;;10.90;92.90;;;;;;4974625;28;20225;-86
2023/09/26 06:39:18;;;;;;;20.40;16.33;;;11.00;93.00;;;;;;4974968;28;20244;-87
2023/09/26 06:41:44;;;;;;;17.03;15.57;;;11.10;93.00;;;;;;4974891;28;20708;-86
2023/09/26 06:44:10;;;;;;;17.70;16.13;;;11.10;93.00;;;;;;4974682;28;20198;-87
2023/09/26 06:46:36;;;;;;;17.50;15.87;;;11.20;93.00;;;;;;4974537;28;20181;-87
2023/09/26 06:49:03;;;;;;;18.47;16.63;;;11.30;93.00;;;;;;4974274;28;20229;-87
2023/09/26 06:51:30;;;;;;;18.70;16.93;;;11.30;93.00;;;;;;4973590;28;20650;-87
2023/09/26 06:53:56;;;;;;;17.03;15.53;;;11.50;93.10;;;;;;4973463;28;20645;-86
2023/09/26 06:56:22;;;;;;;17.90;16.10;;;11.60;93.10;;;;;;4974635;28;20243;-86
2023/09/26 06:58:48;;;;;;;17.83;15.80;;;11.70;93.10;;;;;;4974324;28;20171;-87
2023/09/26 07:01:14;;;;;;;18.33;16.73;;;11.70;93.10;;;;;;4972914;28;20181;-87
2023/09/26 07:03:40;;;;;;;17.37;15.83;;;11.80;93.10;;;;;;4974398;28;20203;-87
2023/09/26 07:06:10;;;;;;;17.93;16.10;;;11.90;93.10;;;;;;4974022;28;20560;-87
2023/09/26 07:08:37;;;;;;;17.67;15.87;;;11.90;93.10;;;;;;4978124;28;20202;-87
2023/09/26 07:11:03;;;;;;;19.37;16.87;;;12.00;93.10;;;;;;4978436;28;20177;-87
2023/09/26 07:13:29;;;;;;;18.07;15.27;;;12.00;93.10;;;;;;4978504;28;20171;-87
2023/09/26 07:15:59;;;;;;;16.50;14.90;;;12.10;93.10;;;;;;4979029;28;20229;-87
2023/09/26 07:18:25;;;;;;;18.10;16.03;;;12.20;93.10;;;;;;4978319;28;20163;-87
2023/09/26 07:20:51;;;;;;;17.30;15.60;;;12.30;93.10;;;;;;4978089;28;20178;-87
2023/09/26 07:23:17;;;;;;;16.33;14.90;;;12.30;93.00;;;;;;4978072;28;20178;-87
2023/09/26 07:25:42;;;;;;;20.80;19.00;;;12.30;93.00;;;;;;4978287;28;20179;-87
2023/09/26 07:28:08;;;;;;;20.00;18.30;;;12.40;93.00;;;;;;4978039;28;20213;-87
2023/09/26 07:30:34;;;;;;;20.43;18.43;;;12.40;92.90;;;;;;4978247;28;20179;-87
2023/09/26 07:33:00;;;;;;;20.97;19.03;;;12.50;92.90;;;;;;4976957;28;20183;-87
2023/09/26 07:35:27;;;;;;;19.80;18.10;;;12.60;92.80;;;;;;4976911;28;20566;-87
2023/09/26 07:37:53;;;;;;;18.53;16.93;;;12.70;92.70;;;;;;4978083;28;20170;-87
2023/09/26 07:40:19;;;;;;;19.47;17.87;;;12.80;92.60;;;;;;4976633;28;20254;-87
2023/09/26 07:42:44;;;;;;;20.00;18.30;;;12.80;92.50;;;;;;4976652;28;20530;-88
2023/09/26 07:45:11;;;;;;;20.10;18.23;;;12.90;92.30;;;;;;4976516;28;20194;-88
2023/09/26 07:47:36;;;;;;;19.30;17.37;;;13.00;92.20;;;;;;4976781;28;20274;-87
2023/09/26 07:50:02;;;;;;;18.80;17.10;;;13.10;92.10;;;;;;4977654;28;20741;-86
2023/09/26 07:52:28;;;;;;;16.93;13.63;;;13.20;91.80;;;;;;4976460;28;20183;-87
2023/09/26 07:54:54;;;;;;;15.17;13.67;;;13.30;91.50;;;;;;4977266;28;20226;-86
2023/09/26 07:57:20;;;;;;;17.87;16.07;;;13.30;91.30;;;;;;4976986;28;20174;-87
2023/09/26 07:59:46;;;;;;;18.50;16.77;;;13.50;91.10;;;;;;4977573;28;20171;-87
2023/09/26 08:02:12;;;;;;;19.10;17.47;;;13.60;90.80;;;;;;4977622;28;20183;-87
2023/09/26 08:04:38;;;;;;;13.13;11.83;;;13.80;90.30;;;;;;4977454;28;20286;-87
2023/09/26 08:07:04;;;;;;;16.27;14.00;;;13.90;90.10;;;;;;4977556;28;20175;-87
2023/09/26 08:09:29;;;;;;;19.40;17.67;;;14.10;89.40;;;;;;4975895;28;20202;-87
2023/09/26 08:11:55;;;;;;;20.27;17.97;;;14.20;88.90;;;;;;4977440;28;20175;-87
2023/09/26 08:14:20;;;;;;;20.23;18.67;;;14.30;88.60;;;;;;4976018;28;20330;-87
2023/09/26 08:16:47;;;;;;;13.70;12.50;;;14.40;88.20;;;;;;4977078;28;20257;-89
2023/09/26 08:19:12;;;;;;;14.15;12.63;;;14.50;87.70;;;;;;4976484;28;20179;-87
2023/09/26 08:21:39;;;;;;;18.88;16.70;;;14.70;87.60;;;;;;4976585;28;20201;-87
2023/09/26 08:24:06;;;;;;;18.45;16.95;;;14.80;87.30;;;;;;4976715;28;20198;-87
2023/09/26 08:26:31;;;;;;;17.17;15.40;;;14.80;87.30;;;;;;4975648;28;20229;-87
2023/09/26 08:28:57;;;;;;;13.65;12.63;;;14.90;87.10;;;;;;4976427;28;20568;-87
2023/09/26 08:31:22;;;;;;;14.18;12.48;;;15.00;87.30;;;;;;4975537;28;20193;-88
2023/09/26 08:33:49;;;;;;;13.05;11.85;;;15.10;86.80;;;;;;4975214;28;20198;-87
2023/09/26 08:36:20;;;;;;;12.73;11.60;;;15.20;86.70;;;;;;4974440;28;20472;-88
2023/09/26 08:38:47;;;;;;;12.45;11.40;;;15.30;86.20;;;;;;4975677;28;20186;-87
2023/09/26 08:41:15;;;;;;;12.80;11.57;;;15.50;85.70;;;;;;4976753;28;20201;-87
2023/09/26 08:43:41;;;;;;;12.63;11.73;;;15.50;84.20;;;;;;4976489;28;20571;-88
2023/09/26 08:46:07;;;;;;;11.88;10.68;;;15.70;83.40;;;;;;4976731;28;20181;-87
2023/09/26 08:48:33;;;;;;;12.75;11.73;;;15.80;82.90;;;;;;4976648;28;20610;-88
2023/09/26 08:50:59;;;;;;;13.60;12.60;;;15.90;81.80;;;;;;4976345;28;20662;-87
2023/09/26 08:53:25;;;;;;;13.07;11.98;;;16.00;81.40;;;;;;4975071;28;20177;-87
2023/09/26 08:55:51;;;;;;;14.50;13.30;;;16.10;81.70;;;;;;4976558;28;20202;-87
2023/09/26 08:58:19;;;;;;;14.68;13.30;;;16.20;81.60;;;;;;4976241;28;20171;-88
2023/09/26 09:00:45;;;;;;;14.05;13.00;;;16.30;81.20;;;;;;4976205;28;20175;-88
2023/09/26 09:03:11;;;;;;;13.65;12.65;;;16.40;81.70;;;;;;4974887;28;20179;-88
2023/09/26 09:05:36;;;;;;;14.07;12.80;;;16.50;81.40;;;;;;4976023;28;20669;-88
2023/09/26 09:08:02;;;;;;;14.25;13.05;;;16.70;80.20;;;;;;4976097;28;20254;-88
2023/09/26 09:10:27;;;;;;;14.30;13.10;;;16.90;80.50;;;;;;4976647;28;20202;-88
2023/09/26 09:13:04;;;;;;;13.50;12.40;;;17.00;79.00;;;;;;4976173;28;20253;-88
2023/09/26 09:15:30;;;;;;;14.82;13.65;;;17.20;78.40;;;;;;4975224;28;20241;-89
2023/09/26 09:17:57;;;;;;;18.50;16.70;;;17.20;77.50;;;;;;4974149;28;20174;-89
2023/09/26 09:20:34;;;;;;;16.17;14.77;;;17.50;77.20;;;;;;4974123;28;20678;-89
2023/09/26 09:23:02;;;;;;;16.83;15.38;;;17.70;77.00;;;;;;4975413;28;20650;-88
2023/09/26 09:25:45;;;;;;;15.55;14.18;;;17.80;74.70;;;;;;4974279;28;20199;-88
2023/09/26 09:28:11;;;;;;;16.25;15.05;;;18.10;75.60;;;;;;4975170;28;20532;-89
2023/09/26 09:30:39;;;;;;;18.20;14.90;;;18.20;74.80;;;;;;4973732;28;20175;-89
2023/09/26 09:33:07;;;;;;;17.15;15.70;;;18.30;73.10;;;;;;4974881;28;20265;-89
2023/09/26 09:35:33;;;;;;;16.73;15.45;;;18.30;72.80;;;;;;4975012;28;20187;-89
2023/09/26 09:38:00;;;;;;;16.85;15.63;;;18.40;71.80;;;;;;4975445;28;20170;-88
2023/09/26 09:40:25;;;;;;;17.58;16.10;;;18.50;72.20;;;;;;4973653;28;20182;-88
2023/09/26 09:42:51;;;;;;;16.75;15.43;;;18.40;71.30;;;;;;4974976;28;20184;-89
2023/09/26 09:45:18;;;;;;;15.23;14.13;;;18.60;72.00;;;;;;4974901;28;20284;-89
2023/09/26 09:47:45;;;;;;;17.55;15.95;;;18.70;72.70;;;;;;4975221;28;20202;-88
2023/09/26 09:50:12;;;;;;;17.30;15.80;;;18.70;70.90;;;;;;4974951;28;20765;-88
2023/09/26 09:52:40;;;;;;;17.67;16.27;;;18.80;71.80;;;;;;4973694;28;20183;-87
2023/09/26 09:55:08;;;;;;;19.02;17.63;;;19.10;71.80;;;;;;4975062;28;20186;-87
2023/09/26 09:57:37;;;;;;;18.63;17.10;;;19.10;71.00;;;;;;4973443;28;20651;-87
2023/09/26 10:00:05;;;;;;;18.42;17.00;;;19.20;69.00;;;;;;4973543;28;20183;-88
2023/09/26 10:02:31;;;;;;;15.73;14.63;;;19.20;68.90;;;;;;4973337;28;20189;-87
2023/09/26 10:05:00;;;;;;;17.23;15.75;;;19.10;68.10;;;;;;4973512;28;20194;-87
2023/09/26 10:07:27;;;;;;;15.93;14.63;;;19.10;68.50;;;;;;4974613;28;20171;-87
2023/09/26 10:09:54;;;;;;;15.50;14.38;;;19.20;69.60;;;;;;4974924;28;20198;-88
2023/09/26 10:12:20;;;;;;;15.43;14.15;;;19.40;69.30;;;;;;4974625;28;20176;-87
2023/09/26 10:14:46;;;;;;;17.05;15.85;;;19.60;70.60;;;;;;4973249;28;20695;-87
2023/09/26 10:17:12;;;;;;;17.27;16.08;;;19.50;68.50;;;;;;4974549;28;20221;-88
2023/09/26 10:19:39;;;;;;;16.92;15.40;;;19.70;70.20;;;;;;4973350;28;20598;-88
2023/09/26 10:22:17;;;;;;;17.52;15.95;;;19.90;70.10;;;;;;4974650;28;20159;-87
2023/09/26 10:24:50;;;;;;;18.13;16.30;;;19.90;68.50;;;;;;4973182;28;20202;-87
2023/09/26 10:27:43;;;;;;;17.92;16.52;;;19.90;68.60;;;;;;4974552;28;20681;-87
2023/09/26 10:30:12;;;;;;;15.82;14.82;;;19.90;69.00;;;;;;4972237;28;20221;-88
2023/09/26 10:32:45;;;;;;;16.52;15.25;;;20.20;69.90;;;;;;4973164;28;20609;-88
2023/09/26 10:35:13;;;;;;;18.10;16.52;;;20.20;68.10;;;;;;4974759;28;20190;-87
2023/09/26 10:37:44;;;;;;;17.73;16.33;;;20.40;68.60;;;;;;4974568;28;20167;-87
2023/09/26 10:40:14;;;;;;;17.13;15.90;;;20.30;68.30;;;;;;4975094;28;20242;-87
2023/09/26 10:42:48;;;;;;;18.98;17.20;;;20.50;68.70;;;;;;4977634;28;20214;-85
2023/09/26 10:45:14;;;;;;;18.77;17.58;;;20.70;67.70;;;;;;4978390;28;20204;-87
2023/09/26 10:47:40;;;;;;;16.70;15.25;;;20.80;66.20;;;;;;4978432;28;20257;-87
2023/09/26 10:50:13;;;;;;;19.92;18.33;;;20.90;67.30;;;;;;4977059;28;20210;-87
2023/09/26 10:52:46;;;;;;;19.58;18.10;;;21.10;65.80;;;;;;4977331;28;20170;-87
2023/09/26 10:55:20;;;;;;;19.08;17.67;;;21.10;66.00;;;;;;4978071;28;20241;-88
2023/09/26 10:57:49;;;;;;;19.98;18.35;;;20.90;63.80;;;;;;4978441;28;20183;-91
2023/09/26 11:00:15;;;;;;;20.10;18.40;;;20.70;64.40;;;;;;4979969;28;20181;-90
2023/09/26 11:02:46;;;;;;;19.90;18.30;;;20.80;66.00;;;;;;4978503;28;20254;-91
2023/09/26 11:05:15;;;;;;;20.58;18.48;;;20.90;66.00;;;;;;4978593;28;20194;-91
2023/09/26 11:07:42;;;;;;;19.98;18.50;;;21.00;64.70;;;;;;4980305;28;20181;-91
2023/09/26 11:10:15;;;;;;;19.52;18.05;;;21.20;65.40;;;;;;4978690;28;20202;-90
2023/09/26 11:12:41;;;;;;;21.23;19.50;;;21.10;65.80;;;;;;4978427;28;20189;-91
2023/09/26 11:15:08;;;;;;;20.20;18.75;;;21.00;64.90;;;;;;4978330;28;20194;-91
2023/09/26 11:17:37;;;;;;;20.92;19.50;;;20.90;64.30;;;;;;4977106;28;20663;-91
2023/09/26 11:20:05;;;;;;;22.42;20.83;;;21.00;64.70;;;;;;4976516;28;20194;-90
2023/09/26 11:22:41;;;;;;;19.70;18.30;;;21.10;65.40;;;;;;4977831;28;20182;-90
2023/09/26 11:25:08;;;;;;;21.05;19.00;;;21.20;64.70;;;;;;4976746;28;20667;-90
2023/09/26 11:27:39;;;;;;;23.70;22.00;;;21.50;65.40;;;;;;4976382;28;20194;-91
2023/09/26 11:30:08;;;;;;;24.52;22.67;;;21.30;60.90;;;;;;4976620;28;20261;-90
2023/09/26 11:32:34;;;;;;;19.80;18.50;;;21.20;62.80;;;;;;4976755;28;20189;-91
2023/09/26 11:35:00;;;;;;;20.40;18.80;;;21.30;62.70;;;;;;4976875;28;20195;-92
2023/09/26 11:37:30;;;;;;;19.73;18.33;;;21.30;62.60;;;;;;4977978;28;20183;-92
2023/09/26 11:39:57;;;;;;;28.80;26.80;;;21.20;63.70;;;;;;4977108;28;20657;-91
2023/09/26 11:42:22;;;;;;;30.95;28.25;;;21.10;63.40;;;;;;4977182;28;20178;-91
2023/09/26 11:44:55;;;;;;;19.80;18.33;;;21.00;65.20;;;;;;4976566;28;20229;-91
2023/09/26 11:47:21;;;;;;;21.20;19.27;;;21.20;66.30;;;;;;4976722;28;20242;-91
2023/09/26 11:49:48;;;;;;;20.42;18.80;;;21.40;64.80;;;;;;4976479;28;20203;-90
2023/09/26 11:52:14;;;;;;;20.67;18.90;;;21.50;65.20;;;;;;4975898;28;20670;-90
2023/09/26 11:54:40;;;;;;;19.88;18.40;;;21.50;66.00;;;;;;4977084;28;20194;-89
2023/09/26 11:57:05;;;;;;;20.67;18.92;;;21.50;64.80;;;;;;4976172;28;20190;-90
2023/09/26 11:59:31;;;;;;;20.60;18.83;;;21.40;64.10;;;;;;4977769;28;20183;-90
2023/09/26 12:01:58;;;;;;;19.42;17.77;;;21.10;64.50;;;;;;4977278;28;20677;-88
2023/09/26 12:04:25;;;;;;;20.40;19.00;;;21.30;66.00;;;;;;4975794;28;20793;-88
2023/09/26 12:06:51;;;;;;;19.50;18.25;;;21.70;66.20;;;;;;4975669;28;20217;-88
2023/09/26 12:09:19;;;;;;;20.05;18.42;;;21.90;63.50;;;;;;4976842;28;20205;-89
2023/09/26 12:11:46;;;;;;;20.45;19.05;;;22.00;64.10;;;;;;4976852;28;20554;-88
2023/09/26 12:14:11;;;;;;;21.05;19.35;;;22.20;62.60;;;;;;4975423;28;20222;-88
2023/09/26 12:16:37;;;;;;;21.48;19.60;;;22.50;65.00;;;;;;4976991;28;20182;-88
2023/09/26 12:19:02;;;;;;;21.13;19.30;;;22.70;63.00;;;;;;4975638;28;20643;-89
2023/09/26 12:21:28;;;;;;;20.60;19.00;;;22.90;63.60;;;;;;4976672;28;20269;-87
2023/09/26 12:23:53;;;;;;;20.73;18.90;;;23.20;62.20;;;;;;4975337;28;20229;-88
2023/09/26 12:26:19;;;;;;;20.95;19.13;;;23.20;62.80;;;;;;4975294;28;20179;-89
2023/09/26 12:28:44;;;;;;;21.15;19.48;;;22.80;61.40;;;;;;4976695;28;20202;-89
2023/09/26 12:31:10;;;;;;;20.55;18.95;;;22.90;62.80;;;;;;4975275;28;20233;-89